createdAt,value
2022-09-05T00:00:15.565Z,18.00
2022-09-05T00:02:49.046Z,17.30
2022-09-05T00:06:01.950Z,17.10
2022-09-05T00:08:50.954Z,17.20
2022-09-05T00:11:40.892Z,18.30
2022-09-05T00:15:17.795Z,17.10
2022-09-05T00:22:42.399Z,17.70
2022-09-05T00:24:19.621Z,15.80
2022-09-05T00:27:26.870Z,16.30
2022-09-05T00:32:55.365Z,16.20
2022-09-05T00:35:27.937Z,18.50
2022-09-05T00:37:56.083Z,17.20
2022-09-05T00:40:37.041Z,18.00
2022-09-05T00:43:13.321Z,18.20
2022-09-05T00:45:54.391Z,18.00
2022-09-05T00:48:46.187Z,18.50
2022-09-05T00:51:54.038Z,18.40
2022-09-05T00:54:44.850Z,16.90
2022-09-05T00:57:54.376Z,18.40
2022-09-05T01:00:23.987Z,17.40
2022-09-05T01:03:10.037Z,16.00
2022-09-05T01:06:11.339Z,16.00
2022-09-05T01:09:10.675Z,16.50
2022-09-05T01:11:56.291Z,15.50
2022-09-05T01:14:52.625Z,17.40
2022-09-05T01:17:57.354Z,18.10
2022-09-05T01:20:39.252Z,17.70
2022-09-05T01:23:27.196Z,16.90
2022-09-05T01:26:11.104Z,15.60
2022-09-05T01:29:18.434Z,16.90
2022-09-05T01:32:10.745Z,16.00
2022-09-05T01:35:15.237Z,16.80
2022-09-05T01:38:07.643Z,16.80
2022-09-05T01:40:48.337Z,16.60
2022-09-05T01:43:52.111Z,15.90
2022-09-05T01:46:34.970Z,18.00
2022-09-05T01:49:24.572Z,17.00
2022-09-05T01:52:18.128Z,15.60
2022-09-05T01:54:57.289Z,18.00
2022-09-05T01:57:56.532Z,17.10
2022-09-05T02:00:48.011Z,15.30
2022-09-05T02:03:33.350Z,17.10
2022-09-05T02:06:18.192Z,16.60
2022-09-05T02:09:14.500Z,16.90
2022-09-05T02:11:47.692Z,15.90
2022-09-05T02:14:43.325Z,16.50
2022-09-05T02:17:27.290Z,17.40
2022-09-05T02:20:23.719Z,16.00
2022-09-05T02:23:00.773Z,15.50
2022-09-05T02:26:01.060Z,16.40
2022-09-05T02:28:57.887Z,15.10
2022-09-05T02:31:42.115Z,15.70
2022-09-05T02:36:55.217Z,15.10
2022-09-05T02:45:02.723Z,16.30
2022-09-05T02:45:12.354Z,15.20
2022-09-05T02:45:38.676Z,15.10
2022-09-05T02:48:15.567Z,14.70
2022-09-05T02:57:23.150Z,14.90
2022-09-05T02:57:35.919Z,16.10
2022-09-05T02:58:04.883Z,17.90
2022-09-05T03:00:28.278Z,17.50
2022-09-05T03:03:21.484Z,15.20
2022-09-05T03:06:04.491Z,16.80
2022-09-05T03:09:09.700Z,15.40
2022-09-05T03:12:29.309Z,16.30
2022-09-05T03:15:24.622Z,17.30
2022-09-05T03:18:24.188Z,14.60
2022-09-05T03:21:13.341Z,15.20
2022-09-05T03:24:05.378Z,14.60
2022-09-05T03:27:00.835Z,17.30
2022-09-05T03:29:58.967Z,16.30
2022-09-05T03:32:49.116Z,14.80
2022-09-05T03:35:51.976Z,16.80
2022-09-05T03:38:47.141Z,17.30
2022-09-05T03:41:55.616Z,14.70
2022-09-05T03:44:57.182Z,16.70
2022-09-05T03:47:58.402Z,16.80
2022-09-05T03:57:06.748Z,15.90
2022-09-05T03:57:10.414Z,14.60
2022-09-05T03:57:32.532Z,14.50
2022-09-05T04:00:08.478Z,15.00
2022-09-05T04:08:15.309Z,15.70
2022-09-05T04:08:17.537Z,14.40
2022-09-05T04:09:37.081Z,15.80
2022-09-05T04:12:16.494Z,15.40
2022-09-05T04:14:55.101Z,15.80
2022-09-05T04:17:50.093Z,16.50
2022-09-05T04:20:40.566Z,15.80
2022-09-05T04:23:29.329Z,17.20
2022-09-05T04:26:30.867Z,15.80
2022-09-05T04:29:19.784Z,14.70
2022-09-05T04:32:18.664Z,15.20
2022-09-05T04:35:04.567Z,16.60
2022-09-05T04:37:48.969Z,16.30
2022-09-05T04:40:40.350Z,15.60
2022-09-05T04:43:13.232Z,15.60
2022-09-05T04:46:05.144Z,14.60
2022-09-05T04:49:01.587Z,15.80
2022-09-05T04:52:00.375Z,15.90
2022-09-05T04:57:41.956Z,15.50
2022-09-05T05:06:05.242Z,15.50
2022-09-05T05:06:14.484Z,15.50
2022-09-05T05:06:46.119Z,15.40
2022-09-05T05:09:30.890Z,15.50
2022-09-05T05:17:55.285Z,15.60
2022-09-05T05:18:11.491Z,15.50
2022-09-05T05:18:12.787Z,16.40
2022-09-05T05:21:02.867Z,15.70
2022-09-05T05:23:44.587Z,15.70
2022-09-05T05:26:48.951Z,15.80
2022-09-05T05:29:50.419Z,16.80
2022-09-05T05:32:46.114Z,16.90
2022-09-05T05:35:24.105Z,16.00
2022-09-05T05:38:13.606Z,16.00
2022-09-05T05:40:51.184Z,16.10
2022-09-05T05:43:26.409Z,16.20
2022-09-05T05:45:59.563Z,16.20
2022-09-05T05:48:38.367Z,16.60
2022-09-05T05:51:44.078Z,16.30
2022-09-05T05:54:37.263Z,16.80
2022-09-05T05:57:25.798Z,17.60
2022-09-05T06:00:05.271Z,17.20
2022-09-05T06:03:26.405Z,17.10
2022-09-05T06:06:23.110Z,17.60
2022-09-05T06:14:50.351Z,18.50
2022-09-05T06:15:04.289Z,20.00
2022-09-05T06:16:06.838Z,20.20
2022-09-05T06:19:03.069Z,23.70
2022-09-05T06:22:10.651Z,24.80
2022-09-05T06:24:47.139Z,24.20
2022-09-05T06:29:59.469Z,24.20
2022-09-05T06:32:58.069Z,26.20
2022-09-05T06:35:32.564Z,25.10
2022-09-05T06:38:28.656Z,24.30
2022-09-05T06:41:33.749Z,25.10
2022-09-05T06:44:37.709Z,26.50
2022-09-05T06:47:22.606Z,27.90
2022-09-05T06:50:27.324Z,27.80
2022-09-05T06:53:23.323Z,29.70
2022-09-05T06:55:58.607Z,30.30
2022-09-05T07:00:58.817Z,31.30
2022-09-05T07:03:35.611Z,31.60
2022-09-05T07:06:19.801Z,31.00
2022-09-05T07:08:55.893Z,32.10
2022-09-05T07:11:30.037Z,31.60
2022-09-05T07:14:00.081Z,31.60
2022-09-05T07:16:41.849Z,31.40
2022-09-05T07:19:29.399Z,31.00
2022-09-05T07:22:05.089Z,31.70
2022-09-05T07:24:54.151Z,32.10
2022-09-05T07:28:26.168Z,32.50
2022-09-05T07:30:34.888Z,32.30
2022-09-05T07:33:03.807Z,33.20
2022-09-05T07:35:39.812Z,33.50
2022-09-05T07:38:15.804Z,33.90
2022-09-05T07:41:14.060Z,34.60
2022-09-05T07:43:46.204Z,34.50
2022-09-05T07:46:20.926Z,36.10
2022-09-05T07:48:52.726Z,35.60
2022-09-05T07:56:43.939Z,36.00
2022-09-05T07:56:59.013Z,37.00
2022-09-05T07:57:30.796Z,37.80
2022-09-05T08:00:27.248Z,37.60
2022-09-05T08:03:08.032Z,38.00
2022-09-05T08:05:45.327Z,37.50
2022-09-05T08:08:17.056Z,39.60
2022-09-05T08:11:25.134Z,40.90
2022-09-05T08:14:43.418Z,39.40
2022-09-05T08:17:01.596Z,41.20
2022-09-05T08:19:40.726Z,41.40
2022-09-05T08:22:13.832Z,40.30
2022-09-05T08:24:57.238Z,42.10
2022-09-05T08:27:55.168Z,40.40
2022-09-05T08:30:27.698Z,40.80
2022-09-05T08:33:10.775Z,39.30
2022-09-05T08:35:47.176Z,41.10
2022-09-05T08:38:15.491Z,41.90
2022-09-05T08:40:47.262Z,41.60
2022-09-05T08:46:37.182Z,40.20
2022-09-05T08:46:48.523Z,40.30
2022-09-05T08:49:58.926Z,40.30
2022-09-05T08:53:04.591Z,40.60
2022-09-05T08:56:20.484Z,40.50
2022-09-05T08:59:32.013Z,40.50
2022-09-05T09:02:47.790Z,41.00
2022-09-05T09:06:12.155Z,41.10
2022-09-05T09:08:48.806Z,41.20
2022-09-05T09:11:32.231Z,41.00
2022-09-05T09:14:30.985Z,41.00
2022-09-05T09:17:20.583Z,40.20
2022-09-05T09:20:12.809Z,40.20
2022-09-05T09:22:47.619Z,39.70
2022-09-05T09:25:27.197Z,38.60
2022-09-05T09:28:47.457Z,38.30
2022-09-05T09:31:35.398Z,38.90
2022-09-05T09:34:26.553Z,38.60
2022-09-05T09:37:50.576Z,42.00
2022-09-05T09:40:28.579Z,40.40
2022-09-05T09:43:14.180Z,41.30
2022-09-05T09:46:03.531Z,43.00
2022-09-05T09:48:58.548Z,42.00
2022-09-05T09:51:53.122Z,41.80
2022-09-05T09:54:44.668Z,40.30
2022-09-05T09:57:35.752Z,41.70
2022-09-05T10:00:22.810Z,41.60
2022-09-05T10:06:31.756Z,41.60
2022-09-05T10:10:46.313Z,40.70
2022-09-05T10:11:09.345Z,40.40
2022-09-05T10:13:18.455Z,41.40
2022-09-05T10:16:11.102Z,42.20
2022-09-05T10:18:56.288Z,41.20
2022-09-05T10:25:18.706Z,41.80
2022-09-05T10:28:06.732Z,40.90
2022-09-05T10:32:23.267Z,41.40
2022-09-05T10:35:12.936Z,41.60
2022-09-05T10:37:12.094Z,41.00
2022-09-05T10:39:43.645Z,40.90
2022-09-05T10:42:35.751Z,42.60
2022-09-05T10:45:15.075Z,41.20
2022-09-05T10:47:51.157Z,40.70
2022-09-05T10:50:36.715Z,41.50
2022-09-05T10:53:39.590Z,39.70
2022-09-05T10:56:28.679Z,40.60
2022-09-05T11:02:19.045Z,37.40
2022-09-05T11:02:29.727Z,37.70
2022-09-05T11:05:26.872Z,36.20
2022-09-05T11:08:01.723Z,37.60
2022-09-05T11:10:36.507Z,37.90
2022-09-05T11:13:06.360Z,38.90
2022-09-05T11:16:04.177Z,36.80
2022-09-05T11:19:17.537Z,37.90
2022-09-05T11:22:23.248Z,37.50
2022-09-05T11:25:19.046Z,39.00
2022-09-05T11:28:00.934Z,36.40
2022-09-05T11:30:38.136Z,37.10
2022-09-05T11:39:51.960Z,36.00
2022-09-05T11:39:54.234Z,38.80
2022-09-05T11:40:10.063Z,38.10
2022-09-05T11:42:46.017Z,37.70
2022-09-05T11:45:36.865Z,39.90
2022-09-05T11:48:24.644Z,40.60
2022-09-05T11:51:35.204Z,40.80
2022-09-05T11:54:39.318Z,41.60
2022-09-05T11:57:33.261Z,42.20
2022-09-05T12:00:33.705Z,41.30
2022-09-05T12:03:41.508Z,40.30
2022-09-05T12:06:59.420Z,39.10
2022-09-05T12:09:55.360Z,38.70
2022-09-05T12:12:44.955Z,37.50
2022-09-05T12:15:34.563Z,38.70
2022-09-05T12:18:27.350Z,39.80
2022-09-05T12:21:22.330Z,39.30
2022-09-05T12:24:08.282Z,38.00
2022-09-05T12:27:37.106Z,38.60
2022-09-05T12:30:00.740Z,39.80
2022-09-05T12:36:13.160Z,39.90
2022-09-05T12:40:21.328Z,36.60
2022-09-05T12:42:09.902Z,39.50
2022-09-05T12:42:10.669Z,36.50
2022-09-05T12:44:44.728Z,38.90
2022-09-05T12:47:19.806Z,39.00
2022-09-05T12:52:42.545Z,38.00
2022-09-05T12:55:22.352Z,37.60
2022-09-05T13:02:56.831Z,37.40
2022-09-05T13:03:09.274Z,36.50
2022-09-05T13:03:59.262Z,36.40
2022-09-05T13:06:38.951Z,34.60
2022-09-05T13:09:16.709Z,34.30
2022-09-05T13:14:58.213Z,35.80
2022-09-05T13:15:20.197Z,35.10
2022-09-05T13:18:14.594Z,33.50
2022-09-05T13:20:49.092Z,33.10
2022-09-05T13:23:44.177Z,32.80
2022-09-05T13:26:20.743Z,33.60
2022-09-05T13:28:57.185Z,32.40
2022-09-05T13:37:54.576Z,31.20
2022-09-05T13:37:59.203Z,32.20
2022-09-05T13:38:06.458Z,34.10
2022-09-05T13:40:19.687Z,33.20
2022-09-05T13:43:13.883Z,32.90
2022-09-05T13:46:12.219Z,32.90
2022-09-05T13:51:36.525Z,33.00
2022-09-05T13:54:47.601Z,34.50
2022-09-05T13:57:33.136Z,31.70
2022-09-05T14:00:26.809Z,31.60
2022-09-05T14:03:38.853Z,31.50
2022-09-05T14:06:46.057Z,33.90
2022-09-05T14:09:39.918Z,34.10
2022-09-05T14:12:37.543Z,33.90
2022-09-05T14:15:19.305Z,32.70
2022-09-05T14:17:52.618Z,33.80
2022-09-05T14:20:38.796Z,33.00
2022-09-05T14:23:15.269Z,33.10
2022-09-05T14:25:55.861Z,31.90
2022-09-05T14:28:49.267Z,33.40
2022-09-05T14:37:39.897Z,32.00
2022-09-05T14:38:01.042Z,32.40
2022-09-05T14:38:01.085Z,33.50
2022-09-05T14:41:00.995Z,34.00
2022-09-05T14:43:52.554Z,34.20
2022-09-05T14:46:49.726Z,33.40
2022-09-05T14:49:25.807Z,34.40
2022-09-05T14:51:53.110Z,33.10
2022-09-05T15:02:41.843Z,33.20
2022-09-05T15:02:58.670Z,34.30
2022-09-05T15:03:08.626Z,34.50
2022-09-05T15:05:41.027Z,34.40
2022-09-05T15:08:38.216Z,33.00
2022-09-05T15:13:57.597Z,31.60
2022-09-05T15:16:25.447Z,33.00
2022-09-05T15:18:53.262Z,33.70
2022-09-05T15:21:35.487Z,34.20
2022-09-05T15:24:21.154Z,32.20
2022-09-05T15:26:57.021Z,31.70
2022-09-05T15:29:29.312Z,31.80
2022-09-05T15:32:24.399Z,31.60
2022-09-05T15:34:54.334Z,32.90
2022-09-05T15:37:33.141Z,31.70
2022-09-05T15:40:22.436Z,31.70
2022-09-05T15:42:55.175Z,31.00
2022-09-05T15:45:38.192Z,33.80
2022-09-05T15:48:23.787Z,32.10
2022-09-05T15:50:56.706Z,31.90
2022-09-05T15:53:25.356Z,33.00
2022-09-05T15:56:00.041Z,32.80
2022-09-05T15:58:27.421Z,32.10
2022-09-05T16:01:15.618Z,30.50
2022-09-05T16:08:23.811Z,31.50
2022-09-05T16:10:34.564Z,31.50
2022-09-05T16:10:57.966Z,30.90
2022-09-05T16:12:42.454Z,32.00
2022-09-05T16:16:12.277Z,29.50
2022-09-05T16:23:13.153Z,31.50
2022-09-05T16:23:23.593Z,30.10
2022-09-05T16:26:29.056Z,30.50
2022-09-05T16:29:01.928Z,30.30
2022-09-05T16:31:34.614Z,31.70
2022-09-05T16:34:08.484Z,28.70
2022-09-05T16:36:57.938Z,30.00
2022-09-05T16:39:41.425Z,28.40
2022-09-05T16:42:46.424Z,28.90
2022-09-05T16:45:43.655Z,29.60
2022-09-05T16:48:31.613Z,30.70
2022-09-05T16:53:59.642Z,29.30
2022-09-05T16:56:37.865Z,29.30
2022-09-05T16:59:19.959Z,30.20
2022-09-05T17:02:05.963Z,29.30
2022-09-05T17:05:05.998Z,28.50
2022-09-05T17:10:15.056Z,29.20
2022-09-05T17:12:42.848Z,30.60
2022-09-05T17:15:16.110Z,29.10
2022-09-05T17:18:19.908Z,30.00
2022-09-05T17:20:36.863Z,29.80
2022-09-05T17:28:47.345Z,28.00
2022-09-05T17:29:25.496Z,27.50
2022-09-05T17:29:34.490Z,27.80
2022-09-05T17:31:54.879Z,28.70
2022-09-05T17:34:29.268Z,27.10
2022-09-05T17:37:19.537Z,28.50
2022-09-05T17:39:49.429Z,28.40
2022-09-05T17:42:48.158Z,27.50
2022-09-05T17:45:23.261Z,28.10
2022-09-05T17:47:57.948Z,28.10
2022-09-05T17:50:28.119Z,26.60
2022-09-05T17:53:26.865Z,27.30
2022-09-05T17:58:48.845Z,27.70
2022-09-05T18:01:27.189Z,26.30
2022-09-05T18:04:16.970Z,27.60
2022-09-05T18:06:49.023Z,28.40
2022-09-05T18:09:48.071Z,26.00
2022-09-05T18:13:13.979Z,28.70
2022-09-05T18:18:05.864Z,26.90
2022-09-05T18:20:54.149Z,26.90
2022-09-05T18:23:43.900Z,26.80
2022-09-05T18:26:22.821Z,26.90
2022-09-05T18:31:41.222Z,26.60
2022-09-05T18:34:21.183Z,26.60
2022-09-05T18:36:53.514Z,25.90
2022-09-05T18:39:37.688Z,27.90
2022-09-05T18:42:33.666Z,25.10
2022-09-05T18:45:14.464Z,24.90
2022-09-05T18:47:59.103Z,26.30
2022-09-05T18:50:34.189Z,26.20
2022-09-05T18:53:09.273Z,26.10
2022-09-05T18:56:12.254Z,27.20
2022-09-05T18:58:34.393Z,26.10
2022-09-05T19:01:22.818Z,26.20
2022-09-05T19:04:00.690Z,27.40
2022-09-05T19:06:35.684Z,26.80
2022-09-05T19:09:10.148Z,26.00
2022-09-05T19:11:49.578Z,27.60
2022-09-05T19:14:38.847Z,28.10
2022-09-05T19:17:17.601Z,25.80
2022-09-05T19:20:30.573Z,25.50
2022-09-05T19:23:12.737Z,25.40
2022-09-05T19:25:52.830Z,25.80
2022-09-05T19:36:52.399Z,25.10
2022-09-05T19:36:54.341Z,26.50
2022-09-05T19:37:03.788Z,24.80
2022-09-05T19:37:38.708Z,23.60
2022-09-05T19:43:21.211Z,24.00
2022-09-05T19:47:28.584Z,25.60
2022-09-05T19:47:48.315Z,25.60
2022-09-05T19:48:35.181Z,26.00
2022-09-05T19:51:26.961Z,23.60
2022-09-05T19:54:05.507Z,26.20
2022-09-05T19:56:50.824Z,25.10
2022-09-05T19:59:22.217Z,25.20
2022-09-05T20:01:50.766Z,26.60
2022-09-05T20:06:51.048Z,24.10
2022-09-05T20:09:21.248Z,24.30
2022-09-05T20:11:53.510Z,25.60
2022-09-05T20:14:20.476Z,23.70
2022-09-05T20:16:50.006Z,25.10
2022-09-05T20:19:30.361Z,24.70
2022-09-05T20:22:10.100Z,26.10
2022-09-05T20:27:18.885Z,24.70
2022-09-05T20:32:38.981Z,23.20
2022-09-05T20:40:48.520Z,25.80
2022-09-05T20:43:24.765Z,24.70
2022-09-05T20:43:30.344Z,23.50
2022-09-05T20:44:22.752Z,24.40
2022-09-05T20:54:05.337Z,24.50
2022-09-05T20:54:13.882Z,22.30
2022-09-05T20:54:27.376Z,23.70
2022-09-05T20:55:42.050Z,23.70
2022-09-05T20:58:15.056Z,25.10
2022-09-05T21:01:19.805Z,22.50
2022-09-05T21:03:54.957Z,23.50
2022-09-05T21:06:33.399Z,22.20
2022-09-05T21:09:16.007Z,24.40
2022-09-05T21:11:51.850Z,23.90
2022-09-05T21:14:21.286Z,21.90
2022-09-05T21:16:57.170Z,24.00
2022-09-05T21:19:30.617Z,23.30
2022-09-05T21:22:20.104Z,23.50
2022-09-05T21:27:25.607Z,22.30
2022-09-05T21:29:59.367Z,24.00
2022-09-05T21:32:27.982Z,22.50
2022-09-05T21:37:53.669Z,23.00
2022-09-05T21:40:21.182Z,22.80
2022-09-05T21:47:35.097Z,21.60
2022-09-05T21:47:41.946Z,24.30
2022-09-05T21:48:24.554Z,22.90
2022-09-05T21:51:08.310Z,22.80
2022-09-05T21:57:39.042Z,22.70
2022-09-05T21:59:19.874Z,21.20
2022-09-05T21:59:37.064Z,24.10
2022-09-05T22:04:41.028Z,22.60
2022-09-05T22:07:13.681Z,22.30
2022-09-05T22:09:40.540Z,22.80
2022-09-05T22:12:12.993Z,23.90
2022-09-05T22:14:54.695Z,21.00
2022-09-05T22:19:50.016Z,20.90
2022-09-05T22:24:52.308Z,23.60
2022-09-05T22:27:20.583Z,22.20
2022-09-05T22:29:50.372Z,22.20
2022-09-05T22:32:18.241Z,22.50
2022-09-05T22:43:01.284Z,20.60
2022-09-05T22:45:29.311Z,23.60
2022-09-05T22:47:56.422Z,20.60
2022-09-05T22:50:24.488Z,23.60
2022-09-05T22:55:18.816Z,21.90
2022-09-05T23:00:12.988Z,21.90
2022-09-05T23:05:07.278Z,23.20
2022-09-05T23:12:35.556Z,20.60
2022-09-05T23:19:57.328Z,20.30
2022-09-05T23:22:24.067Z,23.10
2022-09-05T23:29:45.052Z,20.50
2022-09-05T23:37:09.317Z,21.10
2022-09-05T23:42:03.440Z,19.80
2022-09-05T23:44:30.096Z,21.50
2022-09-05T23:49:24.261Z,20.90
2022-09-05T23:51:50.938Z,19.90
2022-09-05T23:59:11.932Z,21.80
